Time;durP1;ratioP1;P1;durP2;ratioP2;P2;SDS_P1;SDS_P2;PMS_P1;PMS_P2;Temp;Humidity;BMP_temperature;BMP_pressure;BME280_temperature;BME280_humidity;BME280_pressure;Samples;Min_cycle;Max_cycle;Signal;HPM_P1;HPM_P2
2023/09/07 00:00:18;;;;;;;2.57;2.27;;;;;;;;;;4935187;28;20226;-29
2023/09/07 00:02:45;;;;;;;3.13;2.70;;;;;;;;;;4940172;28;20217;-28
2023/09/07 00:05:14;;;;;;;2.40;2.30;;;;;;;;;;4941036;28;20207;-28
2023/09/07 00:07:41;;;;;;;3.50;2.60;;;;;;;;;;4938099;28;20216;-28
2023/09/07 00:10:08;;;;;;;2.50;2.30;;;;;;;;;;4944739;28;20307;-29
2023/09/07 00:12:39;;;;;;;3.60;2.90;;;;;;;;;;4956229;28;20216;-29
2023/09/07 00:15:07;;;;;;;3.27;2.97;;;;;;;;;;4948888;28;20318;-32
2023/09/07 00:17:34;;;;;;;4.53;2.70;;;;;;;;;;4950129;28;20260;-27
2023/09/07 00:20:03;;;;;;;3.00;2.40;;;;;;;;;;4943947;28;20233;-28
2023/09/07 00:22:31;;;;;;;3.97;2.70;;;;;;;;;;4958938;28;20229;-27
2023/09/07 00:24:58;;;;;;;6.17;2.90;;;;;;;;;;4956114;28;20208;-29
2023/09/07 00:27:25;;;;;;;4.47;2.53;;;;;;;;;;4954851;28;20482;-29
2023/09/07 00:29:53;;;;;;;2.47;2.27;;;;;;;;;;4963043;28;20247;-30
2023/09/07 00:32:20;;;;;;;2.57;2.37;;;;;;;;;;4946846;28;20224;-26
2023/09/07 00:34:48;;;;;;;2.87;2.67;;;;;;;;;;4952170;28;20233;-26
2023/09/07 00:37:15;;;;;;;3.07;2.37;;;;;;;;;;4961327;28;20221;-30
2023/09/07 00:39:42;;;;;;;3.30;2.60;;;;;;;;;;4945146;28;20230;-31
2023/09/07 00:42:09;;;;;;;2.40;2.20;;;;;;;;;;4955123;28;20205;-31
2023/09/07 00:44:36;;;;;;;2.30;2.13;;;;;;;;;;4963356;28;20223;-31
2023/09/07 00:47:05;;;;;;;2.00;1.90;;;;;;;;;;4958942;28;20211;-32
2023/09/07 00:49:33;;;;;;;3.87;2.27;;;;;;;;;;4950463;28;20589;-30
2023/09/07 00:52:00;;;;;;;2.03;1.93;;;;;;;;;;4961022;28;20603;-29
2023/09/07 00:54:27;;;;;;;2.30;2.10;;;;;;;;;;4942795;28;20690;-28
2023/09/07 00:56:54;;;;;;;2.97;1.90;;;;;;;;;;4948514;28;20212;-29
2023/09/07 00:59:21;;;;;;;2.03;1.93;;;;;;;;;;4951679;28;20227;-27
2023/09/07 01:01:48;;;;;;;2.00;1.90;;;;;;;;;;4947910;28;20211;-26
2023/09/07 01:04:17;;;;;;;3.37;2.00;;;;;;;;;;4947417;28;20307;-26
2023/09/07 01:06:46;;;;;;;2.10;2.00;;;;;;;;;;4948090;28;20211;-26
2023/09/07 01:09:17;;;;;;;2.27;2.00;;;;;;;;;;4944556;28;20234;-27
2023/09/07 01:11:44;;;;;;;2.40;2.20;;;;;;;;;;4940452;28;20236;-30
2023/09/07 01:14:11;;;;;;;1.93;1.83;;;;;;;;;;4956945;28;20211;-30
2023/09/07 01:16:39;;;;;;;3.10;2.17;;;;;;;;;;4956750;28;20214;-30
2023/09/07 01:19:07;;;;;;;2.30;2.07;;;;;;;;;;4948111;28;20326;-30
2023/09/07 01:21:36;;;;;;;2.30;2.10;;;;;;;;;;4956282;28;20210;-32
2023/09/07 01:24:05;;;;;;;2.20;2.07;;;;;;;;;;4946711;28;20674;-30
2023/09/07 01:26:32;;;;;;;1.97;1.87;;;;;;;;;;4943426;28;20490;-29
2023/09/07 01:28:59;;;;;;;3.07;2.20;;;;;;;;;;4954904;28;20238;-29
2023/09/07 01:31:26;;;;;;;2.40;2.17;;;;;;;;;;4951519;28;20231;-30
2023/09/07 01:33:53;;;;;;;3.53;2.23;;;;;;;;;;4946667;28;20217;-30
2023/09/07 01:36:20;;;;;;;2.20;2.07;;;;;;;;;;4951224;28;20212;-31
2023/09/07 01:38:49;;;;;;;2.80;2.33;;;;;;;;;;4946602;28;20212;-27
2023/09/07 01:41:16;;;;;;;2.30;2.20;;;;;;;;;;4958316;28;20207;-31
2023/09/07 01:43:43;;;;;;;2.10;1.90;;;;;;;;;;4953709;28;20227;-31
2023/09/07 01:46:10;;;;;;;2.37;2.20;;;;;;;;;;4955451;28;20234;-26
2023/09/07 01:48:37;;;;;;;2.70;2.50;;;;;;;;;;4944643;28;20212;-30
2023/09/07 01:51:04;;;;;;;2.30;2.00;;;;;;;;;;4956137;28;20228;-29
2023/09/07 01:53:32;;;;;;;1.93;1.80;;;;;;;;;;4955262;28;20208;-32
2023/09/07 01:56:00;;;;;;;2.17;2.07;;;;;;;;;;4947037;28;20218;-28
2023/09/07 01:58:27;;;;;;;2.10;2.00;;;;;;;;;;4955943;28;20220;-31
2023/09/07 02:00:58;;;;;;;3.17;2.53;;;;;;;;;;4958249;28;20298;-27
2023/09/07 02:03:25;;;;;;;3.00;2.70;;;;;;;;;;4951948;28;20692;-30
2023/09/07 02:05:53;;;;;;;1.90;1.80;;;;;;;;;;4951248;28;20209;-26
2023/09/07 02:08:21;;;;;;;2.07;1.90;;;;;;;;;;4952734;28;20218;-32
2023/09/07 02:10:48;;;;;;;3.70;2.23;;;;;;;;;;4950305;28;20237;-30
2023/09/07 02:13:16;;;;;;;2.57;2.00;;;;;;;;;;4949505;28;20230;-30
2023/09/07 02:15:43;;;;;;;2.63;2.10;;;;;;;;;;4960520;28;20293;-28
2023/09/07 02:18:11;;;;;;;4.10;2.23;;;;;;;;;;4945984;28;20215;-29
2023/09/07 02:20:38;;;;;;;2.63;2.17;;;;;;;;;;4962181;28;20234;-28
2023/09/07 02:23:05;;;;;;;2.20;2.00;;;;;;;;;;4954426;28;20307;-31
2023/09/07 02:25:32;;;;;;;2.40;2.20;;;;;;;;;;4940922;28;20324;-29
2023/09/07 02:27:59;;;;;;;2.10;1.90;;;;;;;;;;4943744;28;20211;-28
2023/09/07 02:33:18;;;;;;;3.47;2.03;;;;;;;;;;5737044;22;20295;-34
2023/09/07 02:35:51;;;;;;;2.70;2.13;;;;;;;;;;4965370;28;20214;-35
2023/09/07 02:38:30;;;;;;;4.03;2.27;;;;;;;;;;4978680;28;20209;-38
2023/09/07 02:41:03;;;;;;;3.10;2.20;;;;;;;;;;4953226;29;20214;-34
2023/09/07 02:43:40;;;;;;;2.80;2.53;;;;;;;;;;4960889;28;20230;-34
2023/09/07 02:46:19;;;;;;;2.93;2.27;;;;;;;;;;4955355;28;20207;-35
2023/09/07 02:48:56;;;;;;;4.60;2.00;;;;;;;;;;4949349;28;20223;-36
2023/09/07 02:51:26;;;;;;;2.77;2.20;;;;;;;;;;4955604;28;20240;-34
2023/09/07 02:54:01;;;;;;;2.70;2.47;;;;;;;;;;4945673;29;20223;-36
2023/09/07 02:56:39;;;;;;;2.80;2.17;;;;;;;;;;4949960;28;20285;-35
2023/09/07 02:59:16;;;;;;;2.83;2.00;;;;;;;;;;4963306;28;20262;-32
2023/09/07 03:01:55;;;;;;;5.17;2.30;;;;;;;;;;4952865;28;20211;-35
2023/09/07 03:04:33;;;;;;;2.60;2.40;;;;;;;;;;4954714;28;20299;-36
2023/09/07 03:07:09;;;;;;;3.00;2.10;;;;;;;;;;4955795;28;20221;-35
2023/09/07 03:09:44;;;;;;;3.90;2.53;;;;;;;;;;4948104;28;20286;-34
2023/09/07 03:12:23;;;;;;;3.67;2.50;;;;;;;;;;4953628;28;20237;-34
2023/09/07 03:15:10;;;;;;;4.70;2.30;;;;;;;;;;4956685;28;20234;-34
2023/09/07 03:17:53;;;;;;;2.47;2.27;;;;;;;;;;4954488;28;20209;-34
2023/09/07 03:20:30;;;;;;;2.43;2.23;;;;;;;;;;4954255;28;20233;-33
2023/09/07 03:23:13;;;;;;;2.37;2.17;;;;;;;;;;4960261;28;20229;-34
2023/09/07 03:25:49;;;;;;;2.60;2.40;;;;;;;;;;4947999;29;20218;-36
2023/09/07 03:28:26;;;;;;;2.37;2.17;;;;;;;;;;4954032;28;20213;-33
2023/09/07 03:31:00;;;;;;;2.37;2.17;;;;;;;;;;4955140;28;20230;-35
2023/09/07 03:33:36;;;;;;;2.90;2.37;;;;;;;;;;4950359;28;20238;-33
2023/09/07 03:36:13;;;;;;;3.60;2.20;;;;;;;;;;4956413;28;20219;-35
2023/09/07 03:38:43;;;;;;;3.53;2.40;;;;;;;;;;4945040;28;20330;-33
2023/09/07 03:41:17;;;;;;;2.07;1.97;;;;;;;;;;4948268;28;20250;-37
2023/09/07 03:43:49;;;;;;;2.90;2.40;;;;;;;;;;4950835;28;20215;-33
2023/09/07 03:46:25;;;;;;;2.50;2.30;;;;;;;;;;4958185;28;20206;-37
2023/09/07 03:49:07;;;;;;;2.80;2.60;;;;;;;;;;4946507;28;20319;-36
2023/09/07 03:51:46;;;;;;;2.20;2.10;;;;;;;;;;4952438;28;20219;-33
2023/09/07 03:54:19;;;;;;;2.10;1.90;;;;;;;;;;4948219;28;20205;-33
2023/09/07 03:56:59;;;;;;;2.23;2.03;;;;;;;;;;4942450;29;20206;-33
2023/09/07 03:59:32;;;;;;;3.23;2.23;;;;;;;;;;4949975;28;20245;-37
2023/09/07 04:02:06;;;;;;;2.07;1.87;;;;;;;;;;4947117;29;20238;-33
2023/09/07 04:04:41;;;;;;;2.13;1.93;;;;;;;;;;4956396;28;20214;-37
2023/09/07 04:07:23;;;;;;;3.40;2.10;;;;;;;;;;4945906;28;20208;-37
2023/09/07 04:10:17;;;;;;;3.07;2.30;;;;;;;;;;4936651;29;20226;-34
2023/09/07 04:13:04;;;;;;;2.20;2.00;;;;;;;;;;4950428;28;20221;-32
2023/09/07 04:15:45;;;;;;;3.10;2.50;;;;;;;;;;4962127;28;20206;-33
2023/09/07 04:18:21;;;;;;;2.77;2.00;;;;;;;;;;4957208;28;20257;-33
2023/09/07 04:21:07;;;;;;;3.03;1.90;;;;;;;;;;4953694;28;20255;-34
2023/09/07 04:23:50;;;;;;;2.00;1.90;;;;;;;;;;4956441;28;20214;-32
2023/09/07 04:26:32;;;;;;;2.60;2.40;;;;;;;;;;4952800;28;20225;-36
2023/09/07 04:29:17;;;;;;;2.70;2.33;;;;;;;;;;4958631;28;20245;-34
2023/09/07 04:31:56;;;;;;;3.00;2.57;;;;;;;;;;4969056;28;20679;-35
2023/09/07 04:34:39;;;;;;;2.27;2.07;;;;;;;;;;4958541;28;20210;-32
2023/09/07 04:37:17;;;;;;;2.00;1.90;;;;;;;;;;4962279;28;20232;-36
2023/09/07 04:39:52;;;;;;;2.00;1.90;;;;;;;;;;4955173;28;20765;-33
2023/09/07 04:42:31;;;;;;;2.20;2.00;;;;;;;;;;4953946;28;20758;-35
2023/09/07 04:45:04;;;;;;;4.67;3.03;;;;;;;;;;4950503;28;20219;-36
2023/09/07 04:47:47;;;;;;;2.13;1.93;;;;;;;;;;4961768;28;20233;-34
2023/09/07 04:50:21;;;;;;;4.10;2.00;;;;;;;;;;4950806;28;20273;-34
2023/09/07 04:52:54;;;;;;;3.17;2.20;;;;;;;;;;4966364;28;20221;-34
2023/09/07 04:55:31;;;;;;;3.20;2.53;;;;;;;;;;4960707;28;20292;-37
2023/09/07 04:58:13;;;;;;;4.43;2.60;;;;;;;;;;4960091;28;20214;-35
2023/09/07 05:00:42;;;;;;;2.60;2.40;;;;;;;;;;4968009;28;20221;-36
2023/09/07 05:03:19;;;;;;;2.70;2.50;;;;;;;;;;4966820;28;20229;-35
2023/09/07 05:05:55;;;;;;;4.67;2.67;;;;;;;;;;4951778;28;20212;-35
2023/09/07 05:08:29;;;;;;;2.63;2.43;;;;;;;;;;4960365;28;20228;-34
2023/09/07 05:11:03;;;;;;;3.03;2.20;;;;;;;;;;4954954;28;20236;-36
2023/09/07 05:13:40;;;;;;;2.20;2.00;;;;;;;;;;4957223;28;20230;-32
2023/09/07 05:16:14;;;;;;;2.43;2.20;;;;;;;;;;4950121;28;20216;-32
2023/09/07 05:18:49;;;;;;;2.33;1.87;;;;;;;;;;4960191;28;20212;-32
2023/09/07 05:21:27;;;;;;;3.47;3.07;;;;;;;;;;4946386;29;20214;-35
2023/09/07 05:24:07;;;;;;;3.80;2.23;;;;;;;;;;4960562;28;20201;-32
2023/09/07 05:26:41;;;;;;;2.90;2.57;;;;;;;;;;4956314;28;20205;-33
2023/09/07 05:29:11;;;;;;;3.07;2.77;;;;;;;;;;4961276;28;20352;-38
2023/09/07 05:31:40;;;;;;;3.97;3.07;;;;;;;;;;4955099;28;20289;-33
2023/09/07 05:34:17;;;;;;;2.57;2.37;;;;;;;;;;4954648;28;20684;-34
2023/09/07 05:36:45;;;;;;;2.63;2.43;;;;;;;;;;4956678;29;20212;-35
2023/09/07 05:39:15;;;;;;;5.37;2.73;;;;;;;;;;4945689;28;20225;-35
2023/09/07 05:41:55;;;;;;;3.00;2.70;;;;;;;;;;4951044;28;20265;-33
2023/09/07 05:44:34;;;;;;;2.80;2.60;;;;;;;;;;4954856;29;20209;-36
2023/09/07 05:47:18;;;;;;;3.00;2.80;;;;;;;;;;4961533;28;20209;-35
2023/09/07 05:50:05;;;;;;;3.50;3.00;;;;;;;;;;4946238;28;20230;-33
2023/09/07 05:52:44;;;;;;;4.90;2.87;;;;;;;;;;4951256;29;20403;-34
2023/09/07 05:55:27;;;;;;;3.03;2.50;;;;;;;;;;4942444;29;20211;-33
2023/09/07 06:01:20;;;;;;;2.73;2.50;;;;;;;;;;5631040;23;20367;-33
2023/09/07 06:03:57;;;;;;;4.37;2.50;;;;;;;;;;4967905;28;20304;-34
2023/09/07 06:06:27;;;;;;;3.00;2.77;;;;;;;;;;4973131;28;20515;-35
2023/09/07 06:08:58;;;;;;;3.53;2.77;;;;;;;;;;4969873;28;20315;-32
2023/09/07 06:11:31;;;;;;;3.23;2.93;;;;;;;;;;4953871;29;20238;-35
2023/09/07 06:14:07;;;;;;;4.10;3.00;;;;;;;;;;4953742;28;20232;-37
2023/09/07 06:16:46;;;;;;;2.90;2.47;;;;;;;;;;4955661;28;20213;-34
2023/09/07 06:19:15;;;;;;;3.57;2.80;;;;;;;;;;4953743;28;20221;-34
2023/09/07 06:25:01;;;;;;;4.23;3.20;;;;;;;;;;4952632;28;20208;-35
2023/09/07 06:30:24;;;;;;;4.13;2.90;;;;;;;;;;4951123;28;20258;-34
2023/09/07 06:33:02;;;;;;;3.87;3.47;;;;;;;;;;4953186;28;20328;-34
2023/09/07 06:35:44;;;;;;;3.87;2.97;;;;;;;;;;4956020;28;20312;-34
2023/09/07 06:38:35;;;;;;;5.30;3.07;;;;;;;;;;4948106;28;20494;-36
2023/09/07 06:41:20;;;;;;;5.10;3.60;;;;;;;;;;4959018;28;20288;-37
2023/09/07 06:43:57;;;;;;;5.27;2.57;;;;;;;;;;4953779;28;20202;-36
2023/09/07 06:49:25;;;;;;;6.83;3.43;;;;;;;;;;5215923;23;20243;-33
2023/09/07 06:52:00;;;;;;;3.70;3.40;;;;;;;;;;4947328;29;20218;-32
2023/09/07 06:54:53;;;;;;;5.23;3.70;;;;;;;;;;4951767;29;20249;-36
2023/09/07 06:57:29;;;;;;;2.90;2.70;;;;;;;;;;4952965;29;20214;-35
2023/09/07 07:00:05;;;;;;;3.00;2.67;;;;;;;;;;4954730;28;20470;-34
2023/09/07 07:02:40;;;;;;;3.87;3.50;;;;;;;;;;4949841;29;20282;-34
2023/09/07 07:05:15;;;;;;;3.57;3.27;;;;;;;;;;4952403;28;20278;-36
2023/09/07 07:07:57;;;;;;;3.00;2.70;;;;;;;;;;4955463;29;20212;-32
2023/09/07 07:10:31;;;;;;;4.23;3.60;;;;;;;;;;4942056;28;20282;-33
2023/09/07 07:15:51;;;;;;;4.30;3.90;;;;;;;;;;4952384;28;20212;-36
2023/09/07 07:18:30;;;;;;;4.13;3.73;;;;;;;;;;4953628;28;20204;-37
2023/09/07 07:21:33;;;;;;;4.77;4.10;;;;;;;;;;4951692;29;20218;-34
2023/09/07 07:24:17;;;;;;;5.10;3.40;;;;;;;;;;4948493;28;20214;-36
2023/09/07 07:26:51;;;;;;;5.50;3.93;;;;;;;;;;4949440;28;20216;-35
2023/09/07 07:29:23;;;;;;;5.43;3.53;;;;;;;;;;4955846;28;20226;-33
2023/09/07 07:31:53;;;;;;;4.47;3.67;;;;;;;;;;4930526;29;20713;-33
2023/09/07 07:34:23;;;;;;;4.10;3.70;;;;;;;;;;4948884;28;20255;-31
2023/09/07 07:39:34;;;;;;;6.30;4.10;;;;;;;;;;5109624;23;20230;-34
2023/09/07 07:42:14;;;;;;;4.23;3.83;;;;;;;;;;4970043;28;20217;-32
2023/09/07 07:44:55;;;;;;;2.93;2.73;;;;;;;;;;4969396;28;20210;-35
2023/09/07 07:47:30;;;;;;;6.13;4.13;;;;;;;;;;4970145;28;20203;-32
2023/09/07 07:50:09;;;;;;;3.17;2.90;;;;;;;;;;4965810;28;20692;-35
2023/09/07 07:52:42;;;;;;;4.77;4.27;;;;;;;;;;4964653;28;20305;-34
2023/09/07 07:55:13;;;;;;;6.23;3.60;;;;;;;;;;4962790;28;20264;-32
2023/09/07 07:57:43;;;;;;;5.07;4.07;;;;;;;;;;4969968;28;20221;-34
2023/09/07 08:00:26;;;;;;;4.67;4.13;;;;;;;;;;4970228;28;20231;-33
2023/09/07 08:02:55;;;;;;;4.67;3.90;;;;;;;;;;4971732;28;20287;-35
2023/09/07 08:05:25;;;;;;;5.33;4.47;;;;;;;;;;4963633;28;20203;-35
2023/09/07 08:07:53;;;;;;;4.00;3.70;;;;;;;;;;4964987;28;20293;-34
2023/09/07 08:10:41;;;;;;;5.40;3.70;;;;;;;;;;4967216;28;20227;-33
2023/09/07 08:13:10;;;;;;;5.07;4.40;;;;;;;;;;4968907;28;20222;-34
2023/09/07 08:15:47;;;;;;;4.37;3.97;;;;;;;;;;4967319;28;20329;-35
2023/09/07 08:18:27;;;;;;;5.60;4.07;;;;;;;;;;5489325;23;20249;-32
2023/09/07 08:20:59;;;;;;;5.37;3.97;;;;;;;;;;4972694;28;20319;-35
2023/09/07 08:26:22;;;;;;;5.30;3.97;;;;;;;;;;4967371;28;20214;-32
2023/09/07 08:28:57;;;;;;;5.23;4.20;;;;;;;;;;4971345;28;20226;-36
2023/09/07 08:31:26;;;;;;;5.57;4.30;;;;;;;;;;4976046;28;20264;-33
2023/09/07 08:34:02;;;;;;;4.60;4.20;;;;;;;;;;4972235;28;20273;-31
2023/09/07 08:36:40;;;;;;;5.93;4.20;;;;;;;;;;4969587;28;20210;-34
2023/09/07 08:39:14;;;;;;;4.03;3.63;;;;;;;;;;4967178;28;20273;-35
2023/09/07 08:41:44;;;;;;;4.90;4.00;;;;;;;;;;4972242;28;20290;-34
2023/09/07 08:44:22;;;;;;;4.00;3.70;;;;;;;;;;4973232;28;20198;-34
2023/09/07 08:46:51;;;;;;;4.07;3.67;;;;;;;;;;4973355;28;20207;-34
2023/09/07 08:49:45;;;;;;;6.77;3.70;;;;;;;;;;4972364;28;20228;-32
2023/09/07 08:52:19;;;;;;;5.40;4.23;;;;;;;;;;4969898;28;20208;-32
2023/09/07 08:54:49;;;;;;;4.63;4.23;;;;;;;;;;4969856;28;20227;-32
2023/09/07 08:57:28;;;;;;;4.23;3.83;;;;;;;;;;4976523;28;20212;-37
2023/09/07 09:00:04;;;;;;;4.20;3.83;;;;;;;;;;4975563;28;20324;-34
2023/09/07 09:02:40;;;;;;;4.78;4.05;;;;;;;;;;4973473;28;20292;-35
2023/09/07 09:05:21;;;;;;;4.43;3.83;;;;;;;;;;4974314;28;20265;-35
2023/09/07 09:07:49;;;;;;;4.38;4.00;;;;;;;;;;5203048;23;20291;-32
2023/09/07 09:10:21;;;;;;;6.88;4.35;;;;;;;;;;4968506;28;20323;-37
2023/09/07 09:12:50;;;;;;;4.40;4.00;;;;;;;;;;4970840;28;20213;-36
2023/09/07 09:15:51;;;;;;;7.63;3.80;;;;;;;;;;4976221;28;20220;-35
2023/09/07 09:18:29;;;;;;;4.97;4.03;;;;;;;;;;4966652;28;20206;-35
2023/09/07 09:21:05;;;;;;;4.70;3.60;;;;;;;;;;4971228;28;20216;-32
2023/09/07 09:23:43;;;;;;;5.72;3.55;;;;;;;;;;4975199;28;20204;-36
2023/09/07 09:26:12;;;;;;;5.43;4.13;;;;;;;;;;4970708;28;20271;-36
2023/09/07 09:28:50;;;;;;;4.15;3.30;;;;;;;;;;4975843;28;20268;-34
2023/09/07 09:31:31;;;;;;;4.03;3.70;;;;;;;;;;4975309;28;20291;-34
2023/09/07 09:34:03;;;;;;;6.45;4.13;;;;;;;;;;4968637;28;20221;-37
2023/09/07 09:36:47;;;;;;;4.97;4.43;;;;;;;;;;4966279;28;20207;-36
2023/09/07 09:39:29;;;;;;;3.97;3.60;;;;;;;;;;4966600;28;20227;-37
2023/09/07 09:42:04;;;;;;;3.80;3.50;;;;;;;;;;4974418;28;20207;-36
2023/09/07 09:44:46;;;;;;;5.05;3.72;;;;;;;;;;4972503;28;20203;-36
2023/09/07 09:47:33;;;;;;;5.88;3.80;;;;;;;;;;4972051;28;20239;-36
2023/09/07 09:50:06;;;;;;;4.00;3.70;;;;;;;;;;4969540;28;20241;-38
2023/09/07 09:52:46;;;;;;;5.15;3.78;;;;;;;;;;4972334;28;20210;-33
2023/09/07 09:55:32;;;;;;;4.80;3.53;;;;;;;;;;4965564;28;20250;-36
2023/09/07 09:58:04;;;;;;;4.97;4.32;;;;;;;;;;4975133;28;20210;-34
2023/09/07 10:00:40;;;;;;;4.20;3.80;;;;;;;;;;4972084;28;20315;-35
2023/09/07 10:03:33;;;;;;;3.85;3.50;;;;;;;;;;4971152;28;20206;-34
2023/09/07 10:06:17;;;;;;;3.80;3.50;;;;;;;;;;4970885;28;20211;-34
2023/09/07 10:09:17;;;;;;;7.18;3.72;;;;;;;;;;4960574;28;20222;-36
2023/09/07 10:11:57;;;;;;;4.75;4.10;;;;;;;;;;4969706;28;20293;-32
2023/09/07 10:14:27;;;;;;;5.25;4.28;;;;;;;;;;4974999;28;20243;-34
2023/09/07 10:17:04;;;;;;;5.18;4.25;;;;;;;;;;4966928;28;20211;-35
2023/09/07 10:19:49;;;;;;;4.00;3.70;;;;;;;;;;4966844;28;20240;-34
2023/09/07 10:22:23;;;;;;;5.65;3.80;;;;;;;;;;4972769;28;20209;-35
2023/09/07 10:25:00;;;;;;;5.38;4.10;;;;;;;;;;4962179;28;20208;-37
2023/09/07 10:27:39;;;;;;;4.32;3.92;;;;;;;;;;4967930;28;20225;-37
2023/09/07 10:30:11;;;;;;;5.18;3.58;;;;;;;;;;4969221;28;20224;-38
2023/09/07 10:32:43;;;;;;;4.90;3.70;;;;;;;;;;4970452;28;20213;-36
2023/09/07 10:35:19;;;;;;;3.78;3.47;;;;;;;;;;4968304;28;20225;-34
2023/09/07 10:37:48;;;;;;;3.83;3.53;;;;;;;;;;4966490;28;20275;-35
2023/09/07 10:40:26;;;;;;;5.18;4.15;;;;;;;;;;4970149;28;20220;-34
2023/09/07 10:43:04;;;;;;;4.00;3.28;;;;;;;;;;4973359;28;20220;-33
2023/09/07 10:45:32;;;;;;;3.80;3.50;;;;;;;;;;4972914;28;20288;-36
2023/09/07 10:47:59;;;;;;;6.18;3.63;;;;;;;;;;4968684;28;20212;-34
2023/09/07 10:50:32;;;;;;;3.83;3.50;;;;;;;;;;4971915;28;20255;-37
2023/09/07 10:52:59;;;;;;;4.10;3.80;;;;;;;;;;4971584;28;20213;-34
2023/09/07 10:55:27;;;;;;;3.95;3.47;;;;;;;;;;4966320;28;20313;-33
2023/09/07 10:57:57;;;;;;;4.10;3.80;;;;;;;;;;4972053;28;20213;-34
2023/09/07 11:00:29;;;;;;;3.95;3.50;;;;;;;;;;4970007;28;20256;-32
2023/09/07 11:02:56;;;;;;;3.85;3.55;;;;;;;;;;4965586;28;20205;-33
2023/09/07 11:05:24;;;;;;;3.38;3.08;;;;;;;;;;4974274;28;20209;-34
2023/09/07 11:08:00;;;;;;;4.35;3.40;;;;;;;;;;4971633;28;20209;-33
2023/09/07 11:10:32;;;;;;;4.03;3.53;;;;;;;;;;4967355;28;20254;-34
2023/09/07 11:13:04;;;;;;;4.85;4.05;;;;;;;;;;4972394;28;20213;-35
2023/09/07 11:15:32;;;;;;;4.80;3.67;;;;;;;;;;4971480;28;20208;-36
2023/09/07 11:18:02;;;;;;;5.97;3.75;;;;;;;;;;4964876;28;21394;-36
2023/09/07 11:20:31;;;;;;;5.82;3.67;;;;;;;;;;4969745;28;20248;-37
2023/09/07 11:23:04;;;;;;;4.05;3.75;;;;;;;;;;4968969;28;20216;-37
2023/09/07 11:25:47;;;;;;;3.72;3.42;;;;;;;;;;4969849;28;20221;-37
2023/09/07 11:28:15;;;;;;;6.70;3.80;;;;;;;;;;4966811;28;20212;-36
2023/09/07 11:30:51;;;;;;;4.25;3.75;;;;;;;;;;4973274;28;20237;-35
2023/09/07 11:33:22;;;;;;;4.50;3.67;;;;;;;;;;4965399;28;20207;-37
2023/09/07 11:35:54;;;;;;;3.97;3.65;;;;;;;;;;4970245;28;20307;-34
2023/09/07 11:38:24;;;;;;;4.32;3.60;;;;;;;;;;4970089;28;20212;-38
2023/09/07 11:40:51;;;;;;;6.70;3.80;;;;;;;;;;4967341;28;20234;-38
2023/09/07 11:43:20;;;;;;;4.20;3.63;;;;;;;;;;4968804;28;20231;-35
2023/09/07 11:45:50;;;;;;;4.07;3.50;;;;;;;;;;4968172;28;20205;-38
2023/09/07 11:48:18;;;;;;;4.05;3.67;;;;;;;;;;4970382;28;20237;-36
2023/09/07 11:50:49;;;;;;;4.93;3.83;;;;;;;;;;4968469;28;20252;-36
2023/09/07 11:53:20;;;;;;;4.15;3.25;;;;;;;;;;4971748;28;20240;-33
2023/09/07 11:55:50;;;;;;;3.50;3.20;;;;;;;;;;4966991;28;20230;-35
2023/09/07 11:58:17;;;;;;;3.47;3.17;;;;;;;;;;4973080;28;20205;-33
2023/09/07 12:00:47;;;;;;;3.45;3.15;;;;;;;;;;4973306;28;20280;-34
2023/09/07 12:03:15;;;;;;;6.00;3.50;;;;;;;;;;4968477;28;20229;-37
2023/09/07 12:05:45;;;;;;;3.60;3.33;;;;;;;;;;4970007;28;20206;-38
2023/09/07 12:08:19;;;;;;;3.72;3.13;;;;;;;;;;4966005;28;20202;-37
2023/09/07 12:10:49;;;;;;;3.47;3.17;;;;;;;;;;4970521;28;20286;-34
2023/09/07 12:18:43;;;;;;;3.28;3.03;;;;;;;;;;5553477;23;20240;-35
2023/09/07 12:21:10;;;;;;;3.25;2.90;;;;;;;;;;4947711;29;20302;-37
2023/09/07 12:23:44;;;;;;;4.30;3.17;;;;;;;;;;4952638;28;20270;-36
2023/09/07 12:26:16;;;;;;;2.85;2.65;;;;;;;;;;4946589;28;20220;-36
2023/09/07 12:28:44;;;;;;;4.72;3.20;;;;;;;;;;4946506;28;20227;-35
2023/09/07 12:31:17;;;;;;;3.20;2.95;;;;;;;;;;4951273;29;20204;-37
2023/09/07 12:33:48;;;;;;;3.53;2.83;;;;;;;;;;4942974;29;20219;-36
2023/09/07 12:36:21;;;;;;;3.13;2.83;;;;;;;;;;4948616;29;20224;-34
2023/09/07 12:38:49;;;;;;;3.35;2.80;;;;;;;;;;4950643;28;20299;-36
2023/09/07 12:41:21;;;;;;;2.95;2.75;;;;;;;;;;4952373;28;20312;-36
2023/09/07 12:43:52;;;;;;;3.67;3.15;;;;;;;;;;4951288;29;20214;-34
2023/09/07 12:46:19;;;;;;;3.33;3.03;;;;;;;;;;4952590;29;20299;-37
2023/09/07 12:48:51;;;;;;;3.80;2.90;;;;;;;;;;4946542;29;20269;-36
2023/09/07 12:51:23;;;;;;;3.55;3.25;;;;;;;;;;4947411;29;20267;-35
2023/09/07 12:53:52;;;;;;;3.28;2.97;;;;;;;;;;4951277;28;20216;-37
2023/09/07 12:56:26;;;;;;;3.25;2.95;;;;;;;;;;4946960;28;20228;-33
2023/09/07 12:59:11;;;;;;;4.13;2.90;;;;;;;;;;4953634;28;20228;-36
2023/09/07 13:01:43;;;;;;;3.45;3.15;;;;;;;;;;4952268;29;20242;-37
2023/09/07 13:04:14;;;;;;;5.38;3.42;;;;;;;;;;4952014;29;20216;-37
2023/09/07 13:06:41;;;;;;;2.85;2.65;;;;;;;;;;4950702;28;20272;-35
2023/09/07 13:09:17;;;;;;;3.83;2.60;;;;;;;;;;4943770;28;20225;-33
2023/09/07 13:11:59;;;;;;;4.38;2.78;;;;;;;;;;4950002;29;20212;-33
2023/09/07 13:14:28;;;;;;;6.22;2.85;;;;;;;;;;4948883;28;20213;-35
2023/09/07 13:16:57;;;;;;;6.78;3.00;;;;;;;;;;4957181;28;20262;-34
2023/09/07 13:19:25;;;;;;;3.80;2.67;;;;;;;;;;4952027;29;20243;-35
2023/09/07 13:22:00;;;;;;;3.00;2.60;;;;;;;;;;4952963;28;20219;-35
2023/09/07 13:24:28;;;;;;;3.03;2.72;;;;;;;;;;4953063;28;20204;-35
2023/09/07 13:26:58;;;;;;;3.60;3.22;;;;;;;;;;4955405;29;20209;-36
2023/09/07 13:29:31;;;;;;;3.20;2.90;;;;;;;;;;4956953;29;20266;-35
2023/09/07 13:31:59;;;;;;;5.35;3.28;;;;;;;;;;4956128;28;20218;-36
2023/09/07 13:34:27;;;;;;;3.28;2.90;;;;;;;;;;4947617;29;20265;-37
2023/09/07 13:36:58;;;;;;;3.05;2.80;;;;;;;;;;4957349;28;20208;-36
2023/09/07 13:39:29;;;;;;;5.25;2.90;;;;;;;;;;4948458;29;20232;-36
2023/09/07 13:42:16;;;;;;;4.15;2.83;;;;;;;;;;4953361;29;20212;-34
2023/09/07 13:44:51;;;;;;;3.20;2.90;;;;;;;;;;4956782;28;20201;-34
2023/09/07 13:47:23;;;;;;;4.90;3.08;;;;;;;;;;4946537;29;20236;-35
2023/09/07 13:50:00;;;;;;;3.08;2.88;;;;;;;;;;4955320;29;20319;-34
2023/09/07 13:52:35;;;;;;;5.10;2.97;;;;;;;;;;4940324;29;20312;-36
2023/09/07 13:55:07;;;;;;;3.13;2.83;;;;;;;;;;4943840;29;20238;-38
2023/09/07 13:57:39;;;;;;;3.35;3.13;;;;;;;;;;4954372;29;20211;-34
2023/09/07 14:00:09;;;;;;;4.10;3.00;;;;;;;;;;4951907;28;20316;-33
2023/09/07 14:02:42;;;;;;;4.90;2.75;;;;;;;;;;4946048;28;20221;-35
2023/09/07 14:05:27;;;;;;;3.20;2.90;;;;;;;;;;4955841;29;20215;-37
2023/09/07 14:07:59;;;;;;;3.10;2.80;;;;;;;;;;4955755;29;20212;-35
2023/09/07 14:10:32;;;;;;;2.92;2.70;;;;;;;;;;4949651;28;20234;-37
2023/09/07 14:13:12;;;;;;;3.70;2.70;;;;;;;;;;4950079;29;20244;-34
2023/09/07 14:15:45;;;;;;;3.97;2.67;;;;;;;;;;4956302;29;20227;-35
2023/09/07 14:18:23;;;;;;;2.90;2.70;;;;;;;;;;4949698;28;20234;-36
2023/09/07 14:20:57;;;;;;;3.10;2.70;;;;;;;;;;4947592;28;20235;-35
2023/09/07 14:23:27;;;;;;;3.47;3.10;;;;;;;;;;4953663;28;20213;-35
2023/09/07 14:25:56;;;;;;;3.22;2.90;;;;;;;;;;4948298;28;20218;-36
2023/09/07 14:28:27;;;;;;;3.60;3.30;;;;;;;;;;4948376;29;20212;-33
2023/09/07 14:31:07;;;;;;;4.22;3.40;;;;;;;;;;4953852;28;20241;-36
2023/09/07 14:33:38;;;;;;;4.03;2.95;;;;;;;;;;4951602;28;20209;-34
2023/09/07 14:36:16;;;;;;;3.97;2.92;;;;;;;;;;4954812;28;20229;-36
2023/09/07 14:38:59;;;;;;;3.08;2.80;;;;;;;;;;4949827;28;20304;-35
2023/09/07 14:41:53;;;;;;;3.22;2.90;;;;;;;;;;4952783;29;20223;-37
2023/09/07 14:44:34;;;;;;;3.65;3.35;;;;;;;;;;4950335;29;20212;-35
2023/09/07 14:47:14;;;;;;;3.30;3.00;;;;;;;;;;4954638;29;20204;-35
2023/09/07 14:49:48;;;;;;;3.20;2.90;;;;;;;;;;4955139;28;20235;-34
2023/09/07 14:52:17;;;;;;;3.05;2.75;;;;;;;;;;4952609;29;20210;-34
2023/09/07 14:54:48;;;;;;;2.80;2.60;;;;;;;;;;4951283;29;20211;-34
2023/09/07 14:57:23;;;;;;;3.33;3.05;;;;;;;;;;4954131;28;20209;-37
2023/09/07 15:00:04;;;;;;;6.55;3.75;;;;;;;;;;4953544;29;20231;-36
2023/09/07 15:02:44;;;;;;;2.88;2.67;;;;;;;;;;4942144;29;20298;-35
2023/09/07 15:05:15;;;;;;;3.33;3.03;;;;;;;;;;4953948;29;20211;-36
2023/09/07 15:07:47;;;;;;;3.78;2.97;;;;;;;;;;4954162;29;20312;-36
2023/09/07 15:10:19;;;;;;;5.40;3.40;;;;;;;;;;4947209;28;20238;-35
2023/09/07 15:12:50;;;;;;;4.32;3.55;;;;;;;;;;4953597;28;20215;-33
2023/09/07 15:15:22;;;;;;;3.45;3.22;;;;;;;;;;4954557;29;20222;-33
2023/09/07 15:17:55;;;;;;;4.32;3.35;;;;;;;;;;4947848;29;20209;-34
2023/09/07 15:20:29;;;;;;;4.15;3.47;;;;;;;;;;4947082;29;20300;-38
2023/09/07 15:23:00;;;;;;;3.33;3.10;;;;;;;;;;4949283;29;20255;-37
2023/09/07 15:25:31;;;;;;;3.53;3.22;;;;;;;;;;4944816;29;20211;-34
2023/09/07 15:28:05;;;;;;;5.50;3.40;;;;;;;;;;4946519;29;20328;-35
2023/09/07 15:30:38;;;;;;;4.03;3.60;;;;;;;;;;4954024;29;20234;-34
2023/09/07 15:33:07;;;;;;;3.97;3.15;;;;;;;;;;4953245;29;20198;-35
2023/09/07 15:35:41;;;;;;;6.05;3.60;;;;;;;;;;4954061;29;20229;-33
2023/09/07 15:38:16;;;;;;;6.40;3.20;;;;;;;;;;4955230;28;20318;-34
2023/09/07 15:40:48;;;;;;;5.70;3.42;;;;;;;;;;4948601;28;20239;-33
2023/09/07 15:43:21;;;;;;;3.22;3.03;;;;;;;;;;4946287;29;20236;-35
2023/09/07 15:45:58;;;;;;;6.07;3.53;;;;;;;;;;4954359;29;20211;-37
2023/09/07 15:48:32;;;;;;;4.22;2.90;;;;;;;;;;4952690;28;20297;-33
2023/09/07 15:51:08;;;;;;;3.58;3.28;;;;;;;;;;4953873;29;20239;-36